createdAt,value
2022-08-21T00:00:25.545Z,100.00
2022-08-21T00:03:26.911Z,100.00
2022-08-21T00:06:28.366Z,100.00
2022-08-21T00:09:30.203Z,100.00
2022-08-21T00:12:32.164Z,100.00
2022-08-21T00:15:36.920Z,100.00
2022-08-21T00:18:38.577Z,100.00
2022-08-21T00:21:40.405Z,100.00
2022-08-21T00:24:45.668Z,100.00
2022-08-21T00:27:50.479Z,100.00
2022-08-21T00:30:51.919Z,100.00
2022-08-21T00:34:00.639Z,100.00
2022-08-21T00:37:02.613Z,100.00
2022-08-21T00:40:05.273Z,100.00
2022-08-21T00:43:09.305Z,100.00
2022-08-21T00:46:10.892Z,100.00
2022-08-21T00:49:14.055Z,100.00
2022-08-21T00:52:20.078Z,100.00
2022-08-21T00:55:23.900Z,100.00
2022-08-21T00:58:28.549Z,100.00
2022-08-21T01:01:30.053Z,100.00
2022-08-21T01:04:31.841Z,100.00
2022-08-21T01:07:33.459Z,100.00
2022-08-21T01:10:36.122Z,100.00
2022-08-21T01:13:45.574Z,100.00
2022-08-21T01:16:50.840Z,100.00
2022-08-21T01:19:52.977Z,100.00
2022-08-21T01:22:54.549Z,100.00
2022-08-21T01:25:56.092Z,100.00
2022-08-21T01:29:02.385Z,100.00
2022-08-21T01:32:08.301Z,100.00
2022-08-21T01:35:12.172Z,100.00
2022-08-21T01:38:13.709Z,100.00
2022-08-21T01:41:16.682Z,100.00
2022-08-21T01:44:22.648Z,100.00
2022-08-21T01:47:24.797Z,100.00
2022-08-21T01:50:26.312Z,100.00
2022-08-21T01:53:33.057Z,100.00
2022-08-21T01:56:41.072Z,100.00
2022-08-21T01:59:42.732Z,100.00
2022-08-21T02:02:44.167Z,100.00
2022-08-21T02:05:45.963Z,100.00
2022-08-21T02:08:47.656Z,100.00
2022-08-21T02:11:49.601Z,100.00
2022-08-21T02:14:51.054Z,100.00
2022-08-21T02:17:56.414Z,100.00
2022-08-21T02:20:57.901Z,100.00
2022-08-21T02:23:59.550Z,100.00
2022-08-21T02:27:01.273Z,100.00
2022-08-21T02:30:03.574Z,100.00
2022-08-21T02:33:05.846Z,100.00
2022-08-21T02:36:08.793Z,100.00
2022-08-21T02:39:10.208Z,100.00
2022-08-21T02:42:11.656Z,100.00
2022-08-21T02:45:14.604Z,100.00
2022-08-21T02:48:20.761Z,100.00
2022-08-21T02:51:23.775Z,100.00
2022-08-21T02:54:25.633Z,100.00
2022-08-21T02:57:27.095Z,100.00
2022-08-21T03:00:31.429Z,100.00
2022-08-21T03:03:35.511Z,100.00
2022-08-21T03:06:38.075Z,100.00
2022-08-21T03:09:39.529Z,100.00
2022-08-21T03:13:05.778Z,100.00
2022-08-21T03:16:10.101Z,100.00
2022-08-21T03:19:12.122Z,100.00
2022-08-21T03:22:13.606Z,100.00
2022-08-21T03:25:15.029Z,100.00
2022-08-21T03:28:20.056Z,100.00
2022-08-21T03:31:22.589Z,100.00
2022-08-21T03:34:24.060Z,100.00
2022-08-21T03:37:25.697Z,100.00
2022-08-21T03:40:27.364Z,100.00
2022-08-21T03:43:30.926Z,100.00
2022-08-21T03:46:34.024Z,100.00
2022-08-21T03:49:35.509Z,100.00
2022-08-21T03:52:36.978Z,100.00
2022-08-21T03:55:38.401Z,100.00
2022-08-21T03:58:40.785Z,100.00
2022-08-21T04:01:53.173Z,100.00
2022-08-21T04:04:54.635Z,100.00
2022-08-21T04:07:58.011Z,100.00
2022-08-21T04:10:59.631Z,100.00
2022-08-21T04:14:01.040Z,100.00
2022-08-21T04:17:02.459Z,100.00
2022-08-21T04:20:04.354Z,100.00
2022-08-21T04:23:07.194Z,100.00
2022-08-21T04:26:08.658Z,100.00
2022-08-21T04:29:10.421Z,100.00
2022-08-21T04:32:11.952Z,100.00
2022-08-21T04:35:17.322Z,100.00
2022-08-21T04:38:19.835Z,100.00
2022-08-21T04:41:27.999Z,100.00
2022-08-21T04:44:30.010Z,100.00
2022-08-21T04:47:52.373Z,100.00
2022-08-21T04:51:01.506Z,100.00
2022-08-21T04:54:07.028Z,100.00
2022-08-21T04:57:11.158Z,100.00
2022-08-21T05:00:14.685Z,100.00
2022-08-21T05:03:18.473Z,100.00
2022-08-21T05:06:20.555Z,100.00
2022-08-21T05:09:23.194Z,100.00
2022-08-21T05:12:24.760Z,100.00
2022-08-21T05:15:26.380Z,100.00
2022-08-21T05:18:27.814Z,100.00
2022-08-21T05:21:29.276Z,100.00
2022-08-21T05:24:30.881Z,100.00
2022-08-21T05:27:32.752Z,100.00
2022-08-21T05:30:36.504Z,100.00
2022-08-21T05:33:37.988Z,100.00
2022-08-21T05:36:45.459Z,100.00
2022-08-21T05:40:21.936Z,100.00
2022-08-21T05:43:08.376Z,100.00
2022-08-21T05:46:10.376Z,100.00
2022-08-21T05:49:12.314Z,100.00
2022-08-21T05:52:20.539Z,100.00
2022-08-21T05:55:22.116Z,100.00
2022-08-21T05:58:26.616Z,100.00
2022-08-21T06:01:28.738Z,100.00
2022-08-21T06:04:37.289Z,100.00
2022-08-21T06:07:39.022Z,100.00
2022-08-21T06:10:40.507Z,100.00
2022-08-21T06:13:42.923Z,100.00
2022-08-21T06:16:44.368Z,100.00
2022-08-21T06:19:46.152Z,100.00
2022-08-21T06:22:47.664Z,100.00
2022-08-21T06:25:49.123Z,100.00
2022-08-21T06:28:50.618Z,100.00
2022-08-21T06:31:52.550Z,100.00
2022-08-21T06:34:53.947Z,100.00
2022-08-21T06:37:56.028Z,100.00
2022-08-21T06:40:57.925Z,100.00
2022-08-21T06:44:00.051Z,100.00
2022-08-21T06:47:01.546Z,100.00
2022-08-21T06:50:03.708Z,100.00
2022-08-21T06:53:11.341Z,100.00
2022-08-21T06:56:12.970Z,100.00
2022-08-21T06:59:14.447Z,100.00
2022-08-21T07:02:15.884Z,100.00
2022-08-21T07:05:18.082Z,100.00
2022-08-21T07:08:20.949Z,100.00
2022-08-21T07:11:24.440Z,100.00
2022-08-21T07:14:25.889Z,100.00
2022-08-21T07:17:27.337Z,100.00
2022-08-21T07:20:30.344Z,100.00
2022-08-21T07:23:34.672Z,100.00
2022-08-21T07:26:36.883Z,100.00
2022-08-21T07:29:38.322Z,100.00
2022-08-21T07:32:39.767Z,100.00
2022-08-21T07:35:41.218Z,100.00
2022-08-21T07:38:42.882Z,100.00
2022-08-21T07:41:44.591Z,100.00
2022-08-21T07:44:46.267Z,100.00
2022-08-21T07:47:55.392Z,100.00
2022-08-21T07:50:59.661Z,100.00
2022-08-21T07:54:02.007Z,100.00
2022-08-21T07:57:03.753Z,100.00
2022-08-21T08:00:09.307Z,100.00
2022-08-21T08:03:10.751Z,100.00
2022-08-21T08:06:13.486Z,100.00
2022-08-21T08:09:14.900Z,100.00
2022-08-21T08:12:16.414Z,100.00
2022-08-21T08:15:22.585Z,100.00
2022-08-21T08:18:24.113Z,100.00
2022-08-21T08:21:25.534Z,100.00
2022-08-21T08:24:27.164Z,100.00
2022-08-21T08:27:28.901Z,100.00
2022-08-21T08:30:33.108Z,100.00
2022-08-21T08:33:34.625Z,100.00
2022-08-21T08:36:37.890Z,100.00
2022-08-21T08:39:42.152Z,100.00
2022-08-21T08:42:43.805Z,100.00
2022-08-21T08:45:51.031Z,100.00
2022-08-21T08:48:58.057Z,100.00
2022-08-21T08:52:06.980Z,100.00
2022-08-21T08:55:18.478Z,100.00
2022-08-21T08:58:24.435Z,100.00
2022-08-21T09:01:26.216Z,100.00
2022-08-21T09:04:29.994Z,100.00
2022-08-21T09:07:40.523Z,100.00
2022-08-21T09:11:19.704Z,100.00
2022-08-21T09:14:46.099Z,100.00
2022-08-21T09:18:07.948Z,100.00
2022-08-21T09:21:26.185Z,100.00
2022-08-21T09:24:33.943Z,100.00
2022-08-21T09:27:37.475Z,100.00
2022-08-21T09:30:41.922Z,100.00
2022-08-21T09:33:44.513Z,100.00
2022-08-21T09:36:50.046Z,89.25
2022-08-21T09:39:52.082Z,86.10
2022-08-21T09:43:04.943Z,92.78
2022-08-21T09:46:11.129Z,87.96
2022-08-21T09:49:14.905Z,75.61
2022-08-21T09:52:22.678Z,75.43
2022-08-21T09:55:51.659Z,84.46
2022-08-21T09:58:53.222Z,83.93
2022-08-21T10:01:55.437Z,84.59
2022-08-21T10:05:03.093Z,74.43
2022-08-21T10:08:05.275Z,76.52
2022-08-21T10:11:17.066Z,68.30
2022-08-21T10:14:42.162Z,71.33
2022-08-21T10:17:49.969Z,73.21
2022-08-21T10:20:57.358Z,72.25
2022-08-21T10:24:30.498Z,80.95
2022-08-21T10:27:55.966Z,71.26
2022-08-21T10:31:03.888Z,70.22
2022-08-21T10:34:25.439Z,66.07
2022-08-21T10:38:02.247Z,65.94
2022-08-21T10:41:24.422Z,65.42
2022-08-21T10:44:56.628Z,62.97
2022-08-21T10:48:04.919Z,64.22
2022-08-21T10:51:12.420Z,58.42
2022-08-21T10:54:24.382Z,58.95
2022-08-21T10:57:57.452Z,59.09
2022-08-21T11:01:25.527Z,55.96
2022-08-21T11:04:46.337Z,55.76
2022-08-21T11:08:04.963Z,56.23
2022-08-21T11:11:12.480Z,54.19
2022-08-21T11:14:49.963Z,58.10
2022-08-21T11:18:01.200Z,55.80
2022-08-21T11:21:33.079Z,55.21
2022-08-21T11:24:47.841Z,59.83
2022-08-21T11:28:16.696Z,52.64
2022-08-21T11:31:36.920Z,51.71
2022-08-21T11:34:38.416Z,55.29
2022-08-21T11:37:55.862Z,55.18
2022-08-21T11:41:09.535Z,49.19
2022-08-21T11:44:29.468Z,51.30
2022-08-21T11:48:14.314Z,49.98
2022-08-21T11:51:29.239Z,49.17
2022-08-21T11:54:40.705Z,49.38
2022-08-21T11:58:15.264Z,51.49
2022-08-21T12:01:25.833Z,49.78
2022-08-21T12:04:33.399Z,45.14
2022-08-21T12:07:45.297Z,45.29
2022-08-21T12:11:00.456Z,46.61
2022-08-21T12:14:15.142Z,46.10
2022-08-21T12:17:23.778Z,44.24
2022-08-21T12:20:38.207Z,44.69
2022-08-21T12:24:05.789Z,43.68
2022-08-21T12:27:30.423Z,43.30
2022-08-21T12:30:39.527Z,43.01
2022-08-21T12:33:41.997Z,41.38
2022-08-21T12:36:48.832Z,39.16
2022-08-21T12:39:53.365Z,41.01
2022-08-21T12:42:59.284Z,43.00
2022-08-21T12:46:01.798Z,39.40
2022-08-21T12:49:26.714Z,39.21
2022-08-21T12:52:40.617Z,38.33
2022-08-21T12:55:44.292Z,38.18
2022-08-21T12:58:48.797Z,38.58
2022-08-21T13:01:53.346Z,38.36
2022-08-21T13:04:57.551Z,38.75
2022-08-21T13:08:00.756Z,38.56
2022-08-21T13:11:13.383Z,38.54
2022-08-21T13:14:45.890Z,38.53
2022-08-21T13:17:51.561Z,38.51
2022-08-21T13:21:03.406Z,38.62
2022-08-21T13:24:41.904Z,37.23
2022-08-21T13:27:57.412Z,36.84
2022-08-21T13:30:59.579Z,38.09
2022-08-21T13:34:01.210Z,37.18
2022-08-21T13:37:06.992Z,35.42
2022-08-21T13:40:14.493Z,37.73
2022-08-21T13:43:21.177Z,37.77
2022-08-21T13:46:25.049Z,37.84
2022-08-21T13:49:32.363Z,38.72
2022-08-21T13:52:34.388Z,37.32
2022-08-21T13:55:39.802Z,36.49
2022-08-21T13:58:47.565Z,37.66
2022-08-21T14:01:59.847Z,37.40
2022-08-21T14:05:02.771Z,39.83
2022-08-21T14:08:30.635Z,37.34
2022-08-21T14:11:36.647Z,37.80
2022-08-21T14:14:41.133Z,37.55
2022-08-21T14:17:43.521Z,37.20
2022-08-21T14:20:45.942Z,37.23
2022-08-21T14:23:47.529Z,38.98
2022-08-21T14:26:53.453Z,37.77
2022-08-21T14:30:00.855Z,38.80
2022-08-21T14:33:05.470Z,37.27
2022-08-21T14:36:07.172Z,38.34
2022-08-21T14:39:09.884Z,35.06
2022-08-21T14:42:11.405Z,35.75
2022-08-21T14:45:24.711Z,36.96
2022-08-21T14:48:29.176Z,37.15
2022-08-21T14:51:30.779Z,36.25
2022-08-21T14:54:33.301Z,35.16
2022-08-21T14:57:35.432Z,35.66
2022-08-21T15:00:36.890Z,36.79
2022-08-21T15:03:39.369Z,34.87
2022-08-21T15:06:40.926Z,36.27
2022-08-21T15:09:42.413Z,36.41
2022-08-21T15:12:44.040Z,36.96
2022-08-21T15:15:48.736Z,37.72
2022-08-21T15:18:50.541Z,35.81
2022-08-21T15:21:52.181Z,35.32
2022-08-21T15:24:53.768Z,35.87
2022-08-21T15:27:55.324Z,36.23
2022-08-21T15:30:57.306Z,38.75
2022-08-21T15:33:58.831Z,35.76
2022-08-21T15:37:00.285Z,35.09
2022-08-21T15:40:01.831Z,36.58
2022-08-21T15:43:05.925Z,33.91
2022-08-21T15:46:11.579Z,34.87
2022-08-21T15:49:13.068Z,35.94
2022-08-21T15:52:20.666Z,34.21
2022-08-21T15:55:22.281Z,34.01
2022-08-21T15:58:23.900Z,36.69
2022-08-21T16:01:25.496Z,35.76
2022-08-21T16:04:28.353Z,36.71
2022-08-21T16:07:30.000Z,35.12
2022-08-21T16:10:31.759Z,34.61
2022-08-21T16:13:39.625Z,36.18
2022-08-21T16:16:41.207Z,36.26
2022-08-21T16:19:42.972Z,35.36
2022-08-21T16:22:45.283Z,34.18
2022-08-21T16:25:46.995Z,35.79
2022-08-21T16:28:50.674Z,47.24
2022-08-21T16:31:54.428Z,100.00
2022-08-21T16:34:56.014Z,100.00
2022-08-21T16:37:58.429Z,100.00
2022-08-21T16:41:00.448Z,100.00
2022-08-21T16:44:03.573Z,100.00
2022-08-21T16:47:05.471Z,83.48
2022-08-21T16:50:08.237Z,82.22
2022-08-21T16:53:09.717Z,61.65
2022-08-21T16:56:13.598Z,62.02
2022-08-21T16:59:15.233Z,53.25
2022-08-21T17:02:31.759Z,48.45
2022-08-21T17:05:33.225Z,44.99
2022-08-21T17:08:35.269Z,44.96
2022-08-21T17:11:42.400Z,43.31
2022-08-21T17:14:44.047Z,45.73
2022-08-21T17:17:45.968Z,44.96
2022-08-21T17:20:48.566Z,50.88
2022-08-21T17:23:50.352Z,49.00
2022-08-21T17:26:53.323Z,54.18
2022-08-21T17:29:56.253Z,50.38
2022-08-21T17:32:59.897Z,50.96
2022-08-21T17:36:01.849Z,51.13
2022-08-21T17:39:04.643Z,53.32
2022-08-21T17:42:13.522Z,54.54
2022-08-21T17:45:18.959Z,59.01
2022-08-21T17:48:22.223Z,57.87
2022-08-21T17:51:27.353Z,54.15
2022-08-21T17:54:28.927Z,56.90
2022-08-21T17:57:35.149Z,55.81
2022-08-21T18:00:36.720Z,57.10
2022-08-21T18:03:38.641Z,55.44
2022-08-21T18:06:41.151Z,56.30
2022-08-21T18:09:42.601Z,61.09
2022-08-21T18:12:45.332Z,63.92
2022-08-21T18:15:50.696Z,63.50
2022-08-21T18:18:52.747Z,68.41
2022-08-21T18:21:55.785Z,65.27
2022-08-21T18:24:57.281Z,69.31
2022-08-21T18:28:02.541Z,77.62
2022-08-21T18:31:04.800Z,75.52
2022-08-21T18:34:15.959Z,69.37
2022-08-21T18:37:22.079Z,69.66
2022-08-21T18:40:23.610Z,84.28
2022-08-21T18:43:25.311Z,78.22
2022-08-21T18:46:26.729Z,76.96
2022-08-21T18:49:28.652Z,84.71
2022-08-21T18:52:30.639Z,77.52
2022-08-21T18:55:34.033Z,72.16
2022-08-21T18:58:35.562Z,72.57
2022-08-21T19:01:38.044Z,78.45
2022-08-21T19:04:44.789Z,82.94
2022-08-21T19:07:46.808Z,94.52
2022-08-21T19:10:50.557Z,94.74
2022-08-21T19:13:53.623Z,88.24
2022-08-21T19:16:55.214Z,94.89
2022-08-21T19:20:06.277Z,93.19
2022-08-21T19:23:13.211Z,93.83
2022-08-21T19:26:16.585Z,95.38
2022-08-21T19:29:19.755Z,94.37
2022-08-21T19:32:21.315Z,96.11
2022-08-21T19:35:22.749Z,100.00
2022-08-21T19:38:25.119Z,99.62
2022-08-21T19:41:33.824Z,99.45
2022-08-21T19:44:37.017Z,94.81
2022-08-21T19:47:47.144Z,98.75
2022-08-21T19:50:50.107Z,96.17
2022-08-21T19:53:57.237Z,100.00
2022-08-21T19:57:03.830Z,100.00
2022-08-21T20:00:10.077Z,100.00
2022-08-21T20:03:11.600Z,93.50
2022-08-21T20:06:13.325Z,100.00
2022-08-21T20:09:17.065Z,100.00
2022-08-21T20:12:19.682Z,100.00
2022-08-21T20:15:25.010Z,88.71
2022-08-21T20:18:27.433Z,80.21
2022-08-21T20:21:30.086Z,70.84
2022-08-21T20:24:46.548Z,63.22
2022-08-21T20:27:48.568Z,61.29
2022-08-21T20:30:50.267Z,62.31
2022-08-21T20:33:52.228Z,63.96
2022-08-21T20:36:53.737Z,75.15
2022-08-21T20:39:55.291Z,89.68
2022-08-21T20:42:58.884Z,91.54
2022-08-21T20:46:00.811Z,94.42
2022-08-21T20:49:02.336Z,96.31
2022-08-21T20:52:05.419Z,99.11
2022-08-21T20:55:12.553Z,100.00
2022-08-21T20:58:33.284Z,100.00
2022-08-21T21:01:35.859Z,93.50
2022-08-21T21:04:51.532Z,86.06
2022-08-21T21:08:03.048Z,89.42
2022-08-21T21:11:30.667Z,92.34
2022-08-21T21:14:45.071Z,96.37
2022-08-21T21:17:58.601Z,98.68
2022-08-21T21:21:08.136Z,100.00
2022-08-21T21:24:20.782Z,100.00
2022-08-21T21:27:34.818Z,100.00
2022-08-21T21:30:41.349Z,100.00
2022-08-21T21:33:48.776Z,100.00
2022-08-21T21:36:56.472Z,100.00
2022-08-21T21:40:04.585Z,100.00
2022-08-21T21:43:10.848Z,100.00
2022-08-21T21:46:31.312Z,100.00
2022-08-21T21:49:50.790Z,100.00
2022-08-21T21:52:55.168Z,100.00
2022-08-21T21:56:27.672Z,100.00
2022-08-21T21:59:48.655Z,100.00
2022-08-21T22:02:59.242Z,100.00
2022-08-21T22:06:13.012Z,100.00
2022-08-21T22:09:23.478Z,98.03
2022-08-21T22:12:50.197Z,100.00
2022-08-21T22:15:56.270Z,100.00
2022-08-21T22:19:10.026Z,100.00
2022-08-21T22:22:19.237Z,100.00
2022-08-21T22:25:26.884Z,100.00
2022-08-21T22:28:31.724Z,100.00
2022-08-21T22:31:34.835Z,100.00
2022-08-21T22:34:36.391Z,100.00
2022-08-21T22:37:44.803Z,100.00
2022-08-21T22:40:50.955Z,100.00
2022-08-21T22:43:57.438Z,100.00
2022-08-21T22:47:03.575Z,100.00
2022-08-21T22:50:24.096Z,100.00
2022-08-21T22:53:30.273Z,100.00
2022-08-21T22:56:38.488Z,100.00
2022-08-21T22:59:52.870Z,100.00
2022-08-21T23:02:54.412Z,100.00
2022-08-21T23:06:00.429Z,100.00
2022-08-21T23:09:03.177Z,100.00
2022-08-21T23:15:57.972Z,100.00
2022-08-21T23:19:34.388Z,100.00
2022-08-21T23:22:47.327Z,100.00
2022-08-21T23:26:17.683Z,100.00
2022-08-21T23:29:38.551Z,100.00
2022-08-21T23:33:07.283Z,100.00
2022-08-21T23:36:56.268Z,100.00
2022-08-21T23:40:04.232Z,100.00
2022-08-21T23:43:25.586Z,100.00
2022-08-21T23:47:00.959Z,100.00
2022-08-21T23:50:13.903Z,100.00
2022-08-21T23:53:50.584Z,100.00
